Terminal Aerodrome Forecast
Issued by NWS Nashville, TN

Home | Current Version | Previous Version | Text Only | Print | Product List | Glossary On
Versions: 1 2 3 4 5 6 7 8 9 10 11 12 13 14 15 16 17 18 19 20 21 22 23 24 25 26 27 28 29 30 31 32 33 34 35 36 37 38 39 40 41 42
000
FTUS44 KOHX 231158 AAA
TAFBNA
TAF AMD
KBNA 231158Z 2312/2412 04010KT 4SM -DZ BR OVC007
      TEMPO 2312/2316 1 1/2SM -DZ
     FM240000 02013KT 6SM BR VCSH SCT008 OVC015=

USA.gov is the U.S. government's official web portal to all federal, state and local government web resources and services.